createdAt,value
2017-04-01T00:00:41.843Z,0
2017-04-01T00:01:52.830Z,0
2017-04-01T00:03:03.831Z,0
2017-04-01T00:04:14.820Z,0
2017-04-01T00:05:25.808Z,0
2017-04-01T00:06:37.006Z,0
2017-04-01T00:07:48.204Z,0
2017-04-01T00:08:59.196Z,0
2017-04-01T00:10:10.208Z,0
2017-04-01T00:11:21.243Z,0
2017-04-01T00:12:32.239Z,0
2017-04-01T00:13:43.232Z,0
2017-04-01T00:14:54.478Z,0
2017-04-01T00:16:05.460Z,0
2017-04-01T00:17:16.456Z,0
2017-04-01T00:18:27.652Z,0
2017-04-01T00:19:38.843Z,0
2017-04-01T00:20:50.028Z,0
2017-04-01T00:22:01.064Z,0
2017-04-01T00:23:12.053Z,0
2017-04-01T00:24:23.282Z,0
2017-04-01T00:25:34.272Z,0
2017-04-01T00:26:45.269Z,0
2017-04-01T00:27:56.453Z,0
2017-04-01T00:29:07.442Z,0
2017-04-01T00:30:18.630Z,0
2017-04-01T00:31:29.822Z,0
2017-04-01T00:32:40.813Z,0
2017-04-01T00:33:51.837Z,0
2017-04-01T00:35:02.818Z,0
2017-04-01T00:36:13.811Z,0
2017-04-01T00:37:25.000Z,0
2017-04-01T00:38:36.030Z,0
2017-04-01T00:39:47.024Z,0
2017-04-01T00:40:58.019Z,0
2017-04-01T00:42:09.013Z,0
2017-04-01T00:43:20.003Z,0
2017-04-01T00:44:30.984Z,0
2017-04-01T00:45:41.992Z,0
2017-04-01T00:46:53.386Z,0
2017-04-01T00:48:04.787Z,0
2017-04-01T00:49:15.830Z,0
2017-04-01T00:50:26.820Z,0
2017-04-01T00:51:37.806Z,0
2017-04-01T00:52:48.800Z,0
2017-04-01T00:53:59.989Z,0
2017-04-01T00:55:10.978Z,0
2017-04-01T00:56:21.969Z,0
2017-04-01T00:57:32.962Z,0
2017-04-01T00:58:44.148Z,0
2017-04-01T00:59:55.396Z,0
2017-04-01T01:01:06.589Z,0
2017-04-01T01:02:17.579Z,0
2017-04-01T01:03:28.765Z,0
2017-04-01T01:04:39.962Z,0
2017-04-01T01:05:50.948Z,0
2017-04-01T01:07:01.945Z,0
2017-04-01T01:08:12.927Z,0
2017-04-01T01:09:23.920Z,0
2017-04-01T01:10:34.916Z,0
2017-04-01T01:11:45.912Z,0
2017-04-01T01:12:56.908Z,0
2017-04-01T01:14:07.889Z,0
2017-04-01T01:15:18.881Z,0
2017-04-01T01:16:29.917Z,0
2017-04-01T01:17:40.907Z,0
2017-04-01T01:18:51.901Z,0
2017-04-01T01:20:02.884Z,0
2017-04-01T01:21:14.282Z,0
2017-04-01T01:22:25.675Z,0
2017-04-01T01:23:36.669Z,0
2017-04-01T01:24:47.863Z,0
2017-04-01T01:25:58.857Z,0
2017-04-01T01:27:09.888Z,0
2017-04-01T01:28:20.875Z,0
2017-04-01T01:29:32.064Z,0
2017-04-01T01:30:43.266Z,0
2017-04-01T01:31:54.456Z,0
2017-04-01T01:33:05.448Z,0
2017-04-01T01:34:16.440Z,0
2017-04-01T01:35:27.475Z,0
2017-04-01T01:36:38.678Z,0
2017-04-01T01:37:49.918Z,0
2017-04-01T01:39:00.907Z,0
2017-04-01T01:40:12.101Z,0
2017-04-01T01:41:23.288Z,0
2017-04-01T01:42:34.273Z,0
2017-04-01T01:43:45.464Z,0
2017-04-01T01:44:56.652Z,0
2017-04-01T01:46:07.649Z,0
2017-04-01T01:47:18.844Z,0
2017-04-01T01:48:30.037Z,0
2017-04-01T01:49:41.084Z,0
2017-04-01T01:50:52.077Z,0
2017-04-01T01:52:03.272Z,0
2017-04-01T01:53:14.278Z,0
2017-04-01T01:54:25.457Z,0
2017-04-01T01:55:36.453Z,0
2017-04-01T01:56:47.650Z,0
2017-04-01T01:57:58.645Z,0
2017-04-01T01:59:09.689Z,0
2017-04-01T02:00:21.135Z,0
2017-04-01T02:01:32.339Z,0
2017-04-01T02:02:43.329Z,0
2017-04-01T02:03:54.313Z,0
2017-04-01T02:05:05.302Z,0
2017-04-01T02:06:16.683Z,0
2017-04-01T02:07:27.687Z,0
2017-04-01T02:08:38.671Z,0
2017-04-01T02:09:49.915Z,0
2017-04-01T02:11:01.108Z,0
2017-04-01T02:12:12.100Z,0
2017-04-01T02:13:23.091Z,0
2017-04-01T02:14:34.093Z,0
2017-04-01T02:15:45.138Z,0
2017-04-01T02:16:56.323Z,0
2017-04-01T02:18:07.306Z,0
2017-04-01T02:19:18.287Z,0
2017-04-01T02:20:29.280Z,0
2017-04-01T02:21:40.265Z,0
2017-04-01T02:22:51.244Z,0
2017-04-01T02:24:02.229Z,0
2017-04-01T02:25:13.215Z,0
2017-04-01T02:26:24.264Z,0
2017-04-01T02:27:35.451Z,0
2017-04-01T02:28:46.642Z,0
2017-04-01T02:29:57.831Z,0
2017-04-01T02:31:08.811Z,0
2017-04-01T02:32:20.004Z,0
2017-04-01T02:33:30.999Z,0
2017-04-01T02:34:41.993Z,0
2017-04-01T02:35:53.188Z,0
2017-04-01T02:37:04.223Z,0
2017-04-01T02:38:15.424Z,0
2017-04-01T02:39:26.413Z,0
2017-04-01T02:40:37.400Z,0
2017-04-01T02:41:48.394Z,0
2017-04-01T02:42:59.386Z,0
2017-04-01T02:44:10.580Z,0
2017-04-01T02:45:21.569Z,0
2017-04-01T02:46:32.567Z,0
2017-04-01T02:47:43.810Z,0
2017-04-01T02:48:54.993Z,0
2017-04-01T02:50:05.973Z,0
2017-04-01T02:51:17.167Z,0
2017-04-01T02:52:28.162Z,0
2017-04-01T02:53:39.200Z,0
2017-04-01T02:54:50.181Z,0
2017-04-01T02:56:01.177Z,0
2017-04-01T02:57:12.169Z,0
2017-04-01T02:58:23.158Z,0
2017-04-01T02:59:34.150Z,0
2017-04-01T03:00:45.132Z,0
2017-04-01T03:01:56.112Z,0
2017-04-01T03:03:07.106Z,0
2017-04-01T03:04:18.341Z,0
2017-04-01T03:05:29.348Z,0
2017-04-01T03:06:40.544Z,0
2017-04-01T03:07:51.533Z,0
2017-04-01T03:09:02.520Z,0
2017-04-01T03:10:13.710Z,0
2017-04-01T03:11:24.938Z,0
2017-04-01T03:12:35.928Z,0
2017-04-01T03:13:46.971Z,0
2017-04-01T03:14:58.218Z,0
2017-04-01T03:16:09.203Z,0
2017-04-01T03:17:20.232Z,0
2017-04-01T03:18:31.231Z,0
2017-04-01T03:19:42.215Z,0
2017-04-01T03:20:53.201Z,0
2017-04-01T03:22:04.397Z,0
2017-04-01T03:23:15.383Z,0
2017-04-01T03:24:26.367Z,0
2017-04-01T03:25:37.812Z,0
2017-04-01T03:26:48.805Z,0
2017-04-01T03:27:59.995Z,0
2017-04-01T03:29:10.988Z,0
2017-04-01T03:30:21.981Z,0
2017-04-01T03:31:32.968Z,0
2017-04-01T03:32:43.953Z,0
2017-04-01T03:33:54.937Z,0
2017-04-01T03:35:05.924Z,0
2017-04-01T03:36:16.910Z,0
2017-04-01T03:37:27.910Z,0
2017-04-01T03:38:38.897Z,0
2017-04-01T03:39:49.911Z,0
2017-04-01T03:41:00.901Z,0
2017-04-01T03:42:11.947Z,0
2017-04-01T03:43:22.943Z,0
2017-04-01T03:44:33.937Z,0
2017-04-01T03:45:44.922Z,0
2017-04-01T03:46:55.913Z,0
2017-04-01T03:48:06.901Z,0
2017-04-01T03:49:17.886Z,0
2017-04-01T03:50:28.875Z,0
2017-04-01T03:51:39.853Z,0
2017-04-01T03:52:50.896Z,0
2017-04-01T03:54:02.091Z,0
2017-04-01T03:55:13.076Z,0
2017-04-01T03:56:24.076Z,0
2017-04-01T03:57:35.065Z,0
2017-04-01T03:58:46.076Z,0
2017-04-01T03:59:57.069Z,0
2017-04-01T04:01:08.254Z,0
2017-04-01T04:02:19.241Z,0
2017-04-01T04:03:30.275Z,0
2017-04-01T04:04:41.261Z,0
2017-04-01T04:05:52.258Z,0
2017-04-01T04:07:03.253Z,0
2017-04-01T04:08:14.448Z,0
2017-04-01T04:09:25.437Z,0
2017-04-01T04:10:36.427Z,0
2017-04-01T04:11:47.415Z,0
2017-04-01T04:12:58.407Z,0
2017-04-01T04:14:09.591Z,0
2017-04-01T04:15:20.587Z,0
2017-04-01T04:16:31.579Z,0
2017-04-01T04:17:42.565Z,0
2017-04-01T04:18:53.763Z,0
2017-04-01T04:20:05.200Z,0
2017-04-01T04:21:16.179Z,0
2017-04-01T04:22:27.369Z,0
2017-04-01T04:23:38.553Z,0
2017-04-01T04:24:49.736Z,0
2017-04-01T04:26:00.918Z,0
2017-04-01T04:27:11.912Z,0
2017-04-01T04:28:22.900Z,0
2017-04-01T04:29:34.086Z,0
2017-04-01T04:30:45.357Z,0
2017-04-01T04:31:56.345Z,0
2017-04-01T04:33:07.332Z,0
2017-04-01T04:34:18.521Z,0
2017-04-01T04:35:29.510Z,4
2017-04-01T04:36:40.492Z,4
2017-04-01T04:37:51.477Z,4
2017-04-01T04:39:02.462Z,4
2017-04-01T04:40:13.447Z,4
2017-04-01T04:41:24.480Z,8
2017-04-01T04:42:35.468Z,8
2017-04-01T04:43:46.452Z,8
2017-04-01T04:44:57.440Z,12
2017-04-01T04:46:08.622Z,12
2017-04-01T04:47:19.598Z,16
2017-04-01T04:48:30.587Z,20
2017-04-01T04:49:41.570Z,24
2017-04-01T04:50:52.553Z,32
2017-04-01T04:52:03.543Z,36
2017-04-01T04:53:14.586Z,44
2017-04-01T04:54:25.578Z,48
2017-04-01T04:55:36.564Z,56
2017-04-01T04:56:47.755Z,64
2017-04-01T04:57:58.745Z,76
2017-04-01T04:59:09.735Z,84
2017-04-01T05:00:20.725Z,92
2017-04-01T05:01:31.710Z,104
2017-04-01T05:02:43.007Z,120
2017-04-01T05:03:53.997Z,132
2017-04-01T05:05:04.984Z,152
2017-04-01T05:06:16.167Z,168
2017-04-01T05:07:27.159Z,184
2017-04-01T05:08:38.196Z,204
2017-04-01T05:09:49.180Z,228
2017-04-01T05:11:00.168Z,256
2017-04-01T05:12:11.356Z,280
2017-04-01T05:13:22.605Z,316
2017-04-01T05:14:33.586Z,348
2017-04-01T05:15:44.770Z,380
2017-04-01T05:16:55.967Z,412
2017-04-01T05:18:06.954Z,452
2017-04-01T05:19:18.195Z,492
2017-04-01T05:20:29.199Z,536
2017-04-01T05:21:40.579Z,580
2017-04-01T05:22:51.559Z,632
2017-04-01T05:24:02.547Z,688
2017-04-01T05:25:13.535Z,744
2017-04-01T05:26:24.517Z,804
2017-04-01T05:27:35.707Z,864
2017-04-01T05:28:46.904Z,924
2017-04-01T05:29:58.142Z,1000
2017-04-01T05:31:09.133Z,1076
2017-04-01T05:32:20.520Z,1172
2017-04-01T05:33:31.710Z,1272
2017-04-01T05:34:42.900Z,1384
2017-04-01T05:35:53.876Z,1488
2017-04-01T05:37:05.064Z,1580
2017-04-01T05:38:16.049Z,1664
2017-04-01T05:39:27.040Z,1728
2017-04-01T05:40:38.076Z,1796
2017-04-01T05:41:49.262Z,1860
2017-04-01T05:43:00.245Z,1932
2017-04-01T05:44:11.233Z,2012
2017-04-01T05:45:22.256Z,2104
2017-04-01T05:46:33.244Z,2208
2017-04-01T05:47:44.473Z,2304
2017-04-01T05:48:55.460Z,2392
2017-04-01T05:50:06.446Z,2464
2017-04-01T05:51:17.686Z,2536
2017-04-01T05:52:28.684Z,2632
2017-04-01T05:53:39.669Z,2740
2017-04-01T05:54:50.855Z,2868
2017-04-01T05:56:01.844Z,3012
2017-04-01T05:57:13.034Z,3196
2017-04-01T05:58:24.020Z,3412
2017-04-01T05:59:35.212Z,3700
2017-04-01T06:00:46.198Z,4092
2017-04-01T06:01:57.198Z,4464
2017-04-01T06:03:08.181Z,4800
2017-04-01T06:04:19.367Z,5040
2017-04-01T06:05:30.350Z,5728
2017-04-01T06:06:41.336Z,6356
2017-04-01T06:07:52.573Z,6432
2017-04-01T06:09:03.567Z,6460
2017-04-01T06:10:14.551Z,7680
2017-04-01T06:11:25.540Z,7100
2017-04-01T06:12:36.725Z,8132
2017-04-01T06:13:47.922Z,8420
2017-04-01T06:14:58.921Z,7952
2017-04-01T06:16:10.116Z,7136
2017-04-01T06:17:21.101Z,6152
2017-04-01T06:18:32.346Z,5744
2017-04-01T06:19:43.335Z,5876
2017-04-01T06:20:54.332Z,6064
2017-04-01T06:22:05.326Z,6272
2017-04-01T06:23:16.523Z,6188
2017-04-01T06:24:27.509Z,6200
2017-04-01T06:25:38.701Z,6304
2017-04-01T06:26:49.721Z,6556
2017-04-01T06:28:00.702Z,7244
2017-04-01T06:29:11.746Z,7792
2017-04-01T06:30:22.731Z,7636
2017-04-01T06:31:33.732Z,8024
2017-04-01T06:32:44.921Z,8644
2017-04-01T06:33:55.927Z,9152
2017-04-01T06:35:06.919Z,11824
2017-04-01T06:36:17.914Z,11368
2017-04-01T06:37:28.936Z,10340
2017-04-01T06:38:40.139Z,9560
2017-04-01T06:39:51.124Z,10024
2017-04-01T06:41:02.118Z,9944
2017-04-01T06:42:13.146Z,9492
2017-04-01T06:43:24.127Z,9800
2017-04-01T06:44:35.132Z,11100
2017-04-01T06:45:46.373Z,12372
2017-04-01T06:46:57.363Z,12516
2017-04-01T06:48:08.363Z,14240
2017-04-01T06:49:19.359Z,13024
2017-04-01T06:50:30.353Z,11700
2017-04-01T06:51:41.552Z,12080
2017-04-01T06:52:52.537Z,11176
2017-04-01T06:54:03.534Z,10440
2017-04-01T06:55:14.528Z,11324
2017-04-01T06:56:25.821Z,10896
2017-04-01T06:57:36.834Z,11520
2017-04-01T06:58:48.030Z,11800
2017-04-01T06:59:59.272Z,12444
2017-04-01T07:01:10.264Z,13992
2017-04-01T07:02:21.256Z,14360
2017-04-01T07:03:32.454Z,15616
2017-04-01T07:04:43.452Z,16384
2017-04-01T07:05:54.441Z,17728
2017-04-01T07:07:05.478Z,18400
2017-04-01T07:08:16.474Z,20608
2017-04-01T07:09:27.470Z,21152
2017-04-01T07:10:38.480Z,22528
2017-04-01T07:11:49.678Z,26592
2017-04-01T07:13:00.666Z,29344
2017-04-01T07:14:11.674Z,25664
2017-04-01T07:15:22.671Z,27968
2017-04-01T07:16:33.662Z,28672
2017-04-01T07:17:44.654Z,26976
2017-04-01T07:18:55.900Z,23680
2017-04-01T07:20:06.896Z,25088
2017-04-01T07:21:17.888Z,22368
2017-04-01T07:22:29.090Z,26304
2017-04-01T07:23:40.081Z,30400
2017-04-01T07:24:51.081Z,30624
2017-04-01T07:26:02.276Z,30784
2017-04-01T07:27:13.280Z,32608
2017-04-01T07:28:24.323Z,34080
2017-04-01T07:29:35.524Z,37184
2017-04-01T07:30:46.730Z,38432
2017-04-01T07:31:57.737Z,32192
2017-04-01T07:33:08.739Z,28928
2017-04-01T07:34:19.744Z,36864
2017-04-01T07:35:30.741Z,35552
2017-04-01T07:36:41.740Z,33280
2017-04-01T07:37:52.736Z,29504
2017-04-01T07:39:03.993Z,30912
2017-04-01T07:40:15.024Z,30496
2017-04-01T07:41:26.023Z,29248
2017-04-01T07:42:37.028Z,31936
2017-04-01T07:43:48.025Z,30432
2017-04-01T07:44:59.030Z,29920
2017-04-01T07:46:10.237Z,31136
2017-04-01T07:47:21.442Z,32768
2017-04-01T07:48:32.446Z,31968
2017-04-01T07:49:43.445Z,36160
2017-04-01T07:50:54.655Z,30464
2017-04-01T07:52:05.650Z,35520
2017-04-01T07:53:16.653Z,40160
2017-04-01T07:54:27.655Z,44256
2017-04-01T07:55:38.711Z,38560
2017-04-01T07:56:49.949Z,45184
2017-04-01T07:58:00.957Z,46848
2017-04-01T07:59:11.963Z,37280
2017-04-01T08:00:23.170Z,40000
2017-04-01T08:01:34.370Z,42752
2017-04-01T08:02:45.379Z,42560
2017-04-01T08:03:56.384Z,44448
2017-04-01T08:05:07.431Z,44960
2017-04-01T08:06:18.643Z,46240
2017-04-01T08:07:29.853Z,44960
2017-04-01T08:08:40.861Z,50208
2017-04-01T08:09:51.866Z,49984
2017-04-01T08:11:02.874Z,49920
2017-04-01T08:12:14.080Z,54624
2017-04-01T08:13:25.089Z,55168
2017-04-01T08:14:36.294Z,52352
2017-04-01T08:15:47.358Z,30944
2017-04-01T08:16:58.571Z,26560
2017-04-01T08:18:09.586Z,45184
2017-04-01T08:19:20.603Z,39424
2017-04-01T08:20:31.611Z,28352
2017-04-01T08:21:42.864Z,19616
2017-04-01T08:22:53.869Z,22176
2017-04-01T08:24:04.875Z,17184
2017-04-01T08:25:15.882Z,51136
2017-04-01T08:26:26.892Z,60096
2017-04-01T08:27:37.890Z,60000
2017-04-01T08:28:49.118Z,56640
2017-04-01T08:30:00.325Z,46272
2017-04-01T08:31:11.333Z,20032
2017-04-01T08:32:22.592Z,30528
2017-04-01T08:33:33.796Z,46816
2017-04-01T08:34:44.806Z,56480
2017-04-01T08:35:55.814Z,25536
2017-04-01T08:37:06.828Z,25888
2017-04-01T08:38:17.827Z,22112
2017-04-01T08:39:28.834Z,27168
2017-04-01T08:40:40.047Z,26208
2017-04-01T08:41:51.057Z,26848
2017-04-01T08:43:02.315Z,26112
2017-04-01T08:44:13.324Z,23104
2017-04-01T08:45:24.326Z,62784
2017-04-01T08:46:35.523Z,44768
2017-04-01T08:47:46.526Z,57632
2017-04-01T08:48:57.540Z,23968
2017-04-01T08:50:08.755Z,19584
2017-04-01T08:51:19.961Z,53792
2017-04-01T08:52:30.959Z,56928
2017-04-01T08:53:42.007Z,50272
2017-04-01T08:54:53.012Z,54944
2017-04-01T08:56:04.017Z,37728
2017-04-01T08:57:15.024Z,38368
2017-04-01T08:58:26.029Z,20768
2017-04-01T08:59:37.053Z,15084
2017-04-01T09:00:48.057Z,15156
2017-04-01T09:01:59.061Z,15220
2017-04-01T09:03:10.273Z,17248
2017-04-01T09:04:21.281Z,15484
2017-04-01T09:05:32.335Z,16608
2017-04-01T09:06:43.551Z,19456
2017-04-01T09:07:54.558Z,19104
2017-04-01T09:09:05.558Z,14940
2017-04-01T09:10:16.822Z,12656
2017-04-01T09:11:27.822Z,11804
2017-04-01T09:12:38.864Z,11348
2017-04-01T09:13:49.872Z,11036
2017-04-01T09:15:00.884Z,10540
2017-04-01T09:16:11.888Z,10036
2017-04-01T09:17:22.901Z,9660
2017-04-01T09:18:33.903Z,9468
2017-04-01T09:19:44.942Z,9708
2017-04-01T09:20:56.193Z,9060
2017-04-01T09:22:07.189Z,8588
2017-04-01T09:23:18.213Z,8440
2017-04-01T09:24:29.218Z,8852
2017-04-01T09:25:40.221Z,9836
2017-04-01T09:26:51.223Z,11316
2017-04-01T09:28:02.425Z,13428
2017-04-01T09:29:13.426Z,28480
2017-04-01T09:30:24.425Z,30592
2017-04-01T09:31:35.474Z,36928
2017-04-01T09:32:46.481Z,18336
2017-04-01T09:33:57.721Z,15648
2017-04-01T09:35:08.727Z,18016
2017-04-01T09:36:19.715Z,26336
2017-04-01T09:37:30.923Z,26208
2017-04-01T09:38:42.121Z,38880
2017-04-01T09:39:53.127Z,30976
2017-04-01T09:41:04.340Z,45408
2017-04-01T09:42:15.344Z,47936
2017-04-01T09:43:26.356Z,35392
2017-04-01T09:44:37.361Z,50080
2017-04-01T09:45:48.363Z,31456
2017-04-01T09:46:59.365Z,20640
2017-04-01T09:48:10.831Z,21440
2017-04-01T09:49:21.843Z,21728
2017-04-01T09:50:32.850Z,23360
2017-04-01T09:51:44.051Z,22432
2017-04-01T09:52:55.259Z,23008
2017-04-01T09:54:06.263Z,22528
2017-04-01T09:55:17.269Z,16032
2017-04-01T09:56:28.284Z,12480
2017-04-01T09:57:39.297Z,11020
2017-04-01T09:58:50.556Z,10832
2017-04-01T10:00:01.578Z,11548
2017-04-01T10:01:12.582Z,14432
2017-04-01T10:02:23.592Z,17600
2017-04-01T10:03:34.999Z,28768
2017-04-01T10:04:45.993Z,53664
2017-04-01T10:05:56.996Z,52384
2017-04-01T10:07:07.997Z,15312
2017-04-01T10:08:18.995Z,12512
2017-04-01T10:09:30.254Z,11884
2017-04-01T10:10:41.262Z,10892
2017-04-01T10:11:52.260Z,11576
2017-04-01T10:13:03.269Z,14052
2017-04-01T10:14:14.471Z,21120
2017-04-01T10:15:25.481Z,38816
2017-04-01T10:16:36.485Z,47360
2017-04-01T10:17:47.478Z,60320
2017-04-01T10:18:58.477Z,49312
2017-04-01T10:20:09.747Z,36672
2017-04-01T10:21:20.752Z,47808
2017-04-01T10:22:31.764Z,48928
2017-04-01T10:23:42.780Z,45664
2017-04-01T10:24:53.783Z,41760
2017-04-01T10:26:04.793Z,36224
2017-04-01T10:27:15.994Z,30720
2017-04-01T10:28:27.000Z,30240
2017-04-01T10:29:38.033Z,28672
2017-04-01T10:30:49.291Z,26464
2017-04-01T10:32:00.304Z,25056
2017-04-01T10:33:11.513Z,28640
2017-04-01T10:34:22.723Z,32480
2017-04-01T10:35:33.745Z,34432
2017-04-01T10:36:44.949Z,36576
2017-04-01T10:37:56.162Z,31296
2017-04-01T10:39:07.167Z,32544
2017-04-01T10:40:18.181Z,38944
2017-04-01T10:41:29.446Z,31904
2017-04-01T10:42:40.663Z,27584
2017-04-01T10:43:51.708Z,23488
2017-04-01T10:45:02.910Z,23360
2017-04-01T10:46:14.122Z,27232
2017-04-01T10:47:25.140Z,25088
2017-04-01T10:48:36.145Z,24864
2017-04-01T10:49:47.153Z,27200
2017-04-01T10:50:58.169Z,24384
2017-04-01T10:52:09.212Z,19872
2017-04-01T10:53:20.223Z,29760
2017-04-01T10:54:31.226Z,21184
2017-04-01T10:55:42.231Z,21440
2017-04-01T10:56:53.234Z,31360
2017-04-01T10:58:04.243Z,35296
2017-04-01T10:59:15.262Z,35712
2017-04-01T11:00:26.278Z,25600
2017-04-01T11:01:37.342Z,27296
2017-04-01T11:02:48.349Z,23488
2017-04-01T11:03:59.356Z,31840
2017-04-01T11:05:10.379Z,26816
2017-04-01T11:06:21.395Z,19104
2017-04-01T11:07:32.392Z,16864
2017-04-01T11:08:43.398Z,15712
2017-04-01T11:09:54.399Z,15616
2017-04-01T11:11:05.405Z,15904
2017-04-01T11:12:16.657Z,14616
2017-04-01T11:13:27.656Z,13268
2017-04-01T11:14:38.665Z,12228
2017-04-01T11:15:49.673Z,12316
2017-04-01T11:17:00.678Z,14528
2017-04-01T11:18:11.684Z,18432
2017-04-01T11:19:22.698Z,12624
2017-04-01T11:20:33.709Z,10480
2017-04-01T11:21:44.715Z,9104
2017-04-01T11:22:55.766Z,8380
2017-04-01T11:24:06.766Z,8040
2017-04-01T11:25:17.771Z,8464
2017-04-01T11:26:28.776Z,9416
2017-04-01T11:27:39.825Z,10928
2017-04-01T11:28:51.098Z,12476
2017-04-01T11:30:02.096Z,12548
2017-04-01T11:31:13.087Z,12248
2017-04-01T11:32:24.104Z,10980
2017-04-01T11:33:35.307Z,10244
2017-04-01T11:34:46.709Z,10592
2017-04-01T11:35:57.711Z,10288
2017-04-01T11:37:08.716Z,9856
2017-04-01T11:38:19.718Z,9304
2017-04-01T11:39:31.175Z,8640
2017-04-01T11:40:42.186Z,8552
2017-04-01T11:41:53.192Z,9140
2017-04-01T11:43:04.186Z,11048
2017-04-01T11:44:15.182Z,13152
2017-04-01T11:45:26.179Z,13488
2017-04-01T11:46:37.182Z,14324
2017-04-01T11:47:48.185Z,14564
2017-04-01T11:48:59.190Z,18368
2017-04-01T11:50:10.439Z,22816
2017-04-01T11:51:21.433Z,17088
2017-04-01T11:52:32.445Z,18944
2017-04-01T11:53:43.453Z,24672
2017-04-01T11:54:54.486Z,18880
2017-04-01T11:56:05.706Z,18752
2017-04-01T11:57:16.706Z,25632
2017-04-01T11:58:27.704Z,22944
2017-04-01T11:59:38.922Z,20768
2017-04-01T12:00:49.975Z,20512
2017-04-01T12:02:01.191Z,21248
2017-04-01T12:03:12.197Z,17184
2017-04-01T12:04:23.198Z,14816
2017-04-01T12:05:34.205Z,12852
2017-04-01T12:06:45.216Z,11312
2017-04-01T12:07:56.219Z,9996
2017-04-01T12:09:07.228Z,9324
2017-04-01T12:10:18.236Z,9272
2017-04-01T12:11:29.460Z,9904
2017-04-01T12:12:40.460Z,10528
2017-04-01T12:13:51.495Z,11968
2017-04-01T12:15:02.495Z,12256
2017-04-01T12:16:13.705Z,14784
2017-04-01T12:17:24.783Z,12108
2017-04-01T12:18:36.006Z,10256
2017-04-01T12:19:47.008Z,9076
2017-04-01T12:20:58.017Z,8228
2017-04-01T12:22:09.019Z,7648
2017-04-01T12:23:20.016Z,7736
2017-04-01T12:24:31.217Z,8020
2017-04-01T12:25:42.412Z,8204
2017-04-01T12:26:53.417Z,9052
2017-04-01T12:28:04.469Z,9040
2017-04-01T12:29:15.669Z,9216
2017-04-01T12:30:26.873Z,9200
2017-04-01T12:31:38.070Z,8908
2017-04-01T12:32:49.081Z,8484
2017-04-01T12:34:00.079Z,8028
2017-04-01T12:35:11.081Z,7660
2017-04-01T12:36:22.086Z,7356
2017-04-01T12:37:33.085Z,7088
2017-04-01T12:38:44.334Z,7036
2017-04-01T12:39:55.539Z,7132
2017-04-01T12:41:06.533Z,7348
2017-04-01T12:42:17.557Z,7612
2017-04-01T12:43:28.556Z,7912
2017-04-01T12:44:39.551Z,8308
2017-04-01T12:45:50.563Z,8856
2017-04-01T12:47:01.566Z,9152
2017-04-01T12:48:12.783Z,9564
2017-04-01T12:49:23.786Z,10640
2017-04-01T12:50:34.842Z,11444
2017-04-01T12:51:45.851Z,11920
2017-04-01T12:52:57.251Z,13220
2017-04-01T12:54:08.251Z,13504
2017-04-01T12:55:19.250Z,13952
2017-04-01T12:56:30.452Z,15744
2017-04-01T12:57:41.446Z,15968
2017-04-01T12:58:52.449Z,14424
2017-04-01T13:00:03.504Z,14452
2017-04-01T13:01:14.704Z,14776
2017-04-01T13:02:25.704Z,15808
2017-04-01T13:03:36.709Z,16160
2017-04-01T13:04:47.712Z,16352
2017-04-01T13:05:58.719Z,14552
2017-04-01T13:07:09.718Z,15520
2017-04-01T13:08:20.725Z,14600
2017-04-01T13:09:31.735Z,14848
2017-04-01T13:10:42.987Z,15040
2017-04-01T13:11:53.993Z,15072
2017-04-01T13:13:05.194Z,14656
2017-04-01T13:14:16.394Z,13860
2017-04-01T13:15:27.393Z,12072
2017-04-01T13:16:38.601Z,13092
2017-04-01T13:17:49.814Z,13000
2017-04-01T13:19:01.025Z,12204
2017-04-01T13:20:12.232Z,12600
2017-04-01T13:21:23.236Z,12444
2017-04-01T13:22:34.241Z,12080
2017-04-01T13:23:45.257Z,11732
2017-04-01T13:24:56.259Z,11640
2017-04-01T13:26:07.662Z,11920
2017-04-01T13:27:18.666Z,11944
2017-04-01T13:28:29.669Z,11804
2017-04-01T13:29:40.673Z,11840
2017-04-01T13:30:51.673Z,11952
2017-04-01T13:32:02.725Z,12284
2017-04-01T13:33:13.722Z,12676
2017-04-01T13:34:24.722Z,12888
2017-04-01T13:35:35.729Z,12892
2017-04-01T13:36:46.926Z,12656
2017-04-01T13:37:57.921Z,12320
2017-04-01T13:39:08.923Z,12040
2017-04-01T13:40:19.925Z,12144
2017-04-01T13:41:30.935Z,12016
2017-04-01T13:42:42.589Z,11996
2017-04-01T13:43:53.588Z,12020
2017-04-01T13:45:04.588Z,12060
2017-04-01T13:46:15.591Z,12032
2017-04-01T13:47:26.841Z,12140
2017-04-01T13:48:37.838Z,12576
2017-04-01T13:49:48.835Z,12920
2017-04-01T13:50:59.842Z,13320
2017-04-01T13:52:11.044Z,12968
2017-04-01T13:53:22.094Z,12828
2017-04-01T13:54:33.522Z,11400
2017-04-01T13:55:46.096Z,11760
2017-04-01T13:56:57.091Z,11632
2017-04-01T13:58:08.295Z,10760
2017-04-01T13:59:19.290Z,11116
2017-04-01T14:00:30.294Z,11824
2017-04-01T14:01:42.317Z,12456
2017-04-01T14:02:53.544Z,12860
2017-04-01T14:04:04.542Z,13532
2017-04-01T14:05:15.626Z,13304
2017-04-01T14:06:26.637Z,12924
2017-04-01T14:07:37.631Z,13104
2017-04-01T14:08:48.634Z,13244
2017-04-01T14:09:59.681Z,12968
2017-04-01T14:11:10.687Z,12160
2017-04-01T14:12:21.699Z,11996
2017-04-01T14:13:34.183Z,10808
2017-04-01T14:14:45.369Z,10452
2017-04-01T14:15:56.381Z,10128
2017-04-01T14:17:07.426Z,9728
2017-04-01T14:18:18.422Z,9868
2017-04-01T14:19:29.456Z,9904
2017-04-01T14:20:40.469Z,9864
2017-04-01T14:21:51.471Z,9868
2017-04-01T14:23:02.485Z,10116
2017-04-01T14:24:13.503Z,9988
2017-04-01T14:25:24.761Z,9936
2017-04-01T14:26:35.763Z,9908
2017-04-01T14:27:46.767Z,9932
2017-04-01T14:28:57.764Z,10752
2017-04-01T14:30:08.777Z,10660
2017-04-01T14:31:20.089Z,10124
2017-04-01T14:32:31.090Z,10128
2017-04-01T14:33:42.090Z,9716
2017-04-01T14:34:53.092Z,9476
2017-04-01T14:36:04.090Z,9532
2017-04-01T14:37:15.294Z,9356
2017-04-01T14:38:26.297Z,9448
2017-04-01T14:39:37.506Z,9256
2017-04-01T14:40:48.906Z,8968
2017-04-01T14:42:00.355Z,8908
2017-04-01T14:43:11.363Z,8944
2017-04-01T14:44:22.569Z,8760
2017-04-01T14:45:33.570Z,8436
2017-04-01T14:46:44.572Z,8192
2017-04-01T14:47:55.783Z,8072
2017-04-01T14:49:06.830Z,8088
2017-04-01T14:50:17.829Z,8308
2017-04-01T14:51:28.835Z,8392
2017-04-01T14:52:40.304Z,9144
2017-04-01T14:53:51.500Z,9564
2017-04-01T14:55:02.503Z,9636
2017-04-01T14:56:13.707Z,9496
2017-04-01T14:57:25.115Z,9288
2017-04-01T14:58:36.111Z,8988
2017-04-01T14:59:47.117Z,8924
2017-04-01T15:00:58.126Z,8736
2017-04-01T15:02:09.329Z,8220
2017-04-01T15:03:20.575Z,7824
2017-04-01T15:04:31.570Z,7464
2017-04-01T15:05:42.563Z,7112
2017-04-01T15:06:53.577Z,6864
2017-04-01T15:08:04.774Z,6764
2017-04-01T15:09:15.968Z,6732
2017-04-01T15:10:26.964Z,6764
2017-04-01T15:11:38.163Z,6916
2017-04-01T15:12:49.189Z,7044
2017-04-01T15:14:00.391Z,7184
2017-04-01T15:15:11.786Z,7556
2017-04-01T15:16:22.780Z,7764
2017-04-01T15:17:33.781Z,7760
2017-04-01T15:18:44.788Z,7540
2017-04-01T15:19:56.237Z,7424
2017-04-01T15:21:07.240Z,7196
2017-04-01T15:22:19.933Z,7008
2017-04-01T15:23:31.995Z,6888
2017-04-01T15:24:43.042Z,6712
2017-04-01T15:25:54.047Z,6484
2017-04-01T15:27:05.253Z,6292
2017-04-01T15:28:16.254Z,6064
2017-04-01T15:29:27.247Z,5828
2017-04-01T15:30:38.294Z,5688
2017-04-01T15:31:49.299Z,5656
2017-04-01T15:33:00.505Z,5448
2017-04-01T15:34:11.508Z,5364
2017-04-01T15:35:22.509Z,5124
2017-04-01T15:36:33.506Z,5012
2017-04-01T15:37:44.706Z,4964
2017-04-01T15:38:55.707Z,4908
2017-04-01T15:40:06.703Z,4960
2017-04-01T15:41:17.960Z,5044
2017-04-01T15:42:28.966Z,5088
2017-04-01T15:43:40.174Z,5160
2017-04-01T15:44:51.171Z,5296
2017-04-01T15:46:02.379Z,5256
2017-04-01T15:47:13.781Z,5324
2017-04-01T15:48:24.971Z,5580
2017-04-01T15:49:35.974Z,5632
2017-04-01T15:50:47.170Z,5468
2017-04-01T15:51:58.167Z,5308
2017-04-01T15:53:09.422Z,5232
2017-04-01T15:54:20.413Z,5184
2017-04-01T15:55:31.418Z,4936
2017-04-01T15:56:42.421Z,4888
2017-04-01T15:57:53.418Z,4608
2017-04-01T15:59:04.406Z,4424
2017-04-01T16:00:15.406Z,4388
2017-04-01T16:01:26.423Z,4224
2017-04-01T16:02:37.468Z,4092